Time;durP1;ratioP1;P1;durP2;ratioP2;P2;SDS_P1;SDS_P2;PMS_P1;PMS_P2;Temp;Humidity;BMP_temperature;BMP_pressure;BME280_temperature;BME280_humidity;BME280_pressure;Samples;Min_cycle;Max_cycle;Signal;HPM_P1;HPM_P2
2022/06/08 00:01:04;;;;;;;;;;;;;;;17.15;100.00;97947.69;5075390;28;19934;-80
2022/06/08 00:03:33;;;;;;;;;;;;;;;17.48;100.00;97943.25;5076481;28;20477;-80
2022/06/08 00:06:01;;;;;;;;;;;;;;;17.63;100.00;97946.00;5075395;28;19924;-80
2022/06/08 00:08:29;;;;;;;;;;;;;;;17.69;100.00;97932.72;5075309;28;20280;-80
2022/06/08 00:10:56;;;;;;;;;;;;;;;16.70;100.00;97942.72;5074791;28;19928;-80
2022/06/08 00:13:23;;;;;;;;;;;;;;;16.96;100.00;97935.13;5074023;28;19925;-80
2022/06/08 00:15:53;;;;;;;;;;;;;;;17.23;100.00;97915.75;5076237;28;19932;-80
2022/06/08 00:18:21;;;;;;;;;;;;;;;17.46;100.00;97920.38;5075122;28;19932;-80
2022/06/08 00:20:48;;;;;;;;;;;;;;;17.62;100.00;97913.34;5074982;28;20383;-80
2022/06/08 00:23:16;;;;;;;;;;;;;;;17.58;100.00;97918.47;5091733;28;20019;-80
2022/06/08 00:25:43;;;;;;;;;;;;;;;17.65;100.00;97912.34;5076070;28;19924;-80
2022/06/08 00:28:11;;;;;;;;;;;;;;;17.45;100.00;97915.22;5075856;28;20366;-80
2022/06/08 00:30:38;;;;;;;;;;;;;;;17.64;100.00;97916.47;5058175;28;20517;-80
2022/06/08 00:33:06;;;;;;;;;;;;;;;17.72;100.00;97898.56;5075051;28;20287;-80
2022/06/08 00:35:33;;;;;;;;;;;;;;;17.80;100.00;97893.25;5058064;28;19925;-80
2022/06/08 00:38:01;;;;;;;;;;;;;;;17.83;100.00;97895.84;5074621;28;20388;-79
2022/06/08 00:40:47;;;;;;;;;;;;;;;17.95;100.00;97885.41;5075788;28;20410;-80
2022/06/08 00:43:15;;;;;;;;;;;;;;;17.55;100.00;97889.16;5074347;28;20396;-80
2022/06/08 00:45:44;;;;;;;;;;;;;;;17.73;100.00;97869.06;5076089;28;20407;-80
2022/06/08 00:48:11;;;;;;;;;;;;;;;17.68;100.00;97871.81;5041400;28;19931;-79
2022/06/08 00:50:41;;;;;;;;;;;;;;;17.46;100.00;97871.63;5075800;28;19933;-79
2022/06/08 00:53:09;;;;;;;;;;;;;;;17.63;100.00;97864.84;5057733;28;19924;-79
2022/06/08 00:55:38;;;;;;;;;;;;;;;17.79;100.00;97861.41;5074402;28;19934;-80
2022/06/08 00:58:15;;;;;;;;;;;;;;;17.91;100.00;97857.41;5057486;28;19978;-80
2022/06/08 01:00:42;;;;;;;;;;;;;;;17.90;100.00;97850.19;5058025;28;20342;-80
2022/06/08 01:03:11;;;;;;;;;;;;;;;17.73;100.00;97851.31;5057814;28;20013;-80
2022/06/08 01:06:10;;;;;;;;;;;;;;;17.51;100.00;97839.81;5074517;28;19940;-80
2022/06/08 01:08:40;;;;;;;;;;;;;;;17.69;100.00;97828.19;5072503;28;19924;-80
2022/06/08 01:11:17;;;;;;;;;;;;;;;17.65;100.00;97817.13;5040525;28;19925;-80
2022/06/08 01:13:46;;;;;;;;;;;;;;;17.73;100.00;97811.78;5057628;28;19939;-80
2022/06/08 01:16:17;;;;;;;;;;;;;;;17.73;100.00;97806.13;5074181;28;20015;-80
2022/06/08 01:18:45;;;;;;;;;;;;;;;17.68;100.00;97801.22;5057370;28;19932;-80
2022/06/08 01:21:20;;;;;;;;;;;;;;;17.68;100.00;97792.72;5073790;28;19970;-80
2022/06/08 01:23:57;;;;;;;;;;;;;;;17.54;100.00;97793.63;5072831;28;20383;-80
2022/06/08 01:26:30;;;;;;;;;;;;;;;17.47;100.00;97768.69;5057468;28;19931;-80
2022/06/08 01:29:09;;;;;;;;;;;;;;;17.64;100.00;97775.25;5073763;28;20020;-80
2022/06/08 01:31:47;;;;;;;;;;;;;;;17.75;100.00;97766.88;5073688;28;19974;-80
2022/06/08 01:34:22;;;;;;;;;;;;;;;17.26;100.00;97755.88;5073797;28;20435;-80
2022/06/08 01:36:58;;;;;;;;;;;;;;;17.32;100.00;97756.72;5073577;28;19924;-79
2022/06/08 01:39:45;;;;;;;;;;;;;;;17.02;100.00;97772.34;5057054;28;19931;-80
2022/06/08 01:42:15;;;;;;;;;;;;;;;17.33;100.00;97786.47;5073254;28;19924;-80
2022/06/08 01:44:42;;;;;;;;;;;;;;;17.15;100.00;97779.13;5073774;28;19931;-80
2022/06/08 01:47:35;;;;;;;;;;;;;;;17.01;100.00;97780.00;5056676;28;19932;-79
2022/06/08 01:50:26;;;;;;;;;;;;;;;17.40;100.00;97771.94;5095862;28;19972;-80
2022/06/08 01:53:03;;;;;;;;;;;;;;;17.64;100.00;97772.44;5073283;28;20288;-80
2022/06/08 01:55:36;;;;;;;;;;;;;;;17.54;100.00;97759.75;5056400;28;20014;-80
2022/06/08 01:58:33;;;;;;;;;;;;;;;17.64;100.00;97767.56;5073544;28;19925;-80
2022/06/08 02:01:08;;;;;;;;;;;;;;;17.53;100.00;97761.81;5055863;28;19946;-80
2022/06/08 02:03:51;;;;;;;;;;;;;;;17.61;100.00;97756.47;5056432;28;19968;-80
2022/06/08 02:06:25;;;;;;;;;;;;;;;17.08;100.00;97756.22;5089860;28;19925;-79
2022/06/08 02:09:00;;;;;;;;;;;;;;;16.84;100.00;97758.56;5072947;28;19929;-80
2022/06/08 02:11:38;;;;;;;;;;;;;;;17.19;100.00;97751.47;5073024;28;19947;-80
2022/06/08 02:14:10;;;;;;;;;;;;;;;17.03;100.00;97743.63;5074262;28;20394;-80
2022/06/08 02:16:44;;;;;;;;;;;;;;;16.68;100.00;97750.66;5039666;28;19931;-80
2022/06/08 02:19:32;;;;;;;;;;;;;;;16.69;100.00;97741.72;5056603;28;19925;-80
2022/06/08 02:22:05;;;;;;;;;;;;;;;17.05;100.00;97751.59;5056197;28;19924;-80
2022/06/08 02:24:34;;;;;;;;;;;;;;;16.93;100.00;97745.06;5056030;28;20034;-80
2022/06/08 02:27:21;;;;;;;;;;;;;;;17.07;100.00;97744.16;5072944;28;20058;-79
2022/06/08 02:30:02;;;;;;;;;;;;;;;17.25;100.00;97732.53;5072908;28;19932;-80
2022/06/08 02:35:30;;;;;;;;;;;;;;;17.56;100.00;97729.75;5072625;28;19928;-80
2022/06/08 02:38:03;;;;;;;;;;;;;;;17.71;100.00;97729.59;5072400;28;20388;-79
2022/06/08 02:40:33;;;;;;;;;;;;;;;17.07;100.00;97721.59;5039819;28;20313;-80
2022/06/08 02:43:08;;;;;;;;;;;;;;;16.55;100.00;97716.44;5072724;28;19931;-79
2022/06/08 02:45:37;;;;;;;;;;;;;;;16.83;100.00;97717.50;5072863;28;19928;-79
2022/06/08 02:48:09;;;;;;;;;;;;;;;16.53;100.00;97711.28;5072725;28;19928;-79
2022/06/08 02:50:46;;;;;;;;;;;;;;;16.83;100.00;97700.56;5056305;28;19931;-79
2022/06/08 02:53:16;;;;;;;;;;;;;;;16.72;100.00;97692.00;5039167;28;19924;-79
2022/06/08 02:56:06;;;;;;;;;;;;;;;16.56;100.00;97698.22;5072643;28;19924;-79
2022/06/08 02:58:33;;;;;;;;;;;;;;;16.86;100.00;97691.13;5055908;28;19925;-79
2022/06/08 03:01:05;;;;;;;;;;;;;;;16.94;100.00;97697.88;5056230;28;19924;-79
2022/06/08 03:03:45;;;;;;;;;;;;;;;17.31;100.00;97690.25;5073068;28;19950;-79
2022/06/08 03:06:15;;;;;;;;;;;;;;;16.95;100.00;97690.97;5072551;28;20384;-80
2022/06/08 03:09:03;;;;;;;;;;;;;;;16.49;100.00;97687.41;5055571;28;19925;-79
2022/06/08 03:11:36;;;;;;;;;;;;;;;16.86;100.00;97688.28;5039819;28;19925;-80
2022/06/08 03:14:11;;;;;;;;;;;;;;;16.48;100.00;97683.03;5072223;28;20372;-79
2022/06/08 03:16:41;;;;;;;;;;;;;;;16.75;100.00;97679.75;5072504;28;19924;-80
2022/06/08 03:19:11;;;;;;;;;;;;;;;16.80;100.00;97679.00;5072474;28;20006;-79
2022/06/08 03:21:40;;;;;;;;;;;;;;;16.90;100.00;97672.72;5072219;28;20022;-79
2022/06/08 03:24:07;;;;;;;;;;;;;;;16.90;100.00;97672.72;5072262;28;20058;-79
2022/06/08 03:26:41;;;;;;;;;;;;;;;16.91;100.00;97668.63;5072193;28;19955;-79
2022/06/08 03:29:09;;;;;;;;;;;;;;;16.11;100.00;97665.94;5055536;28;19925;-79
2022/06/08 03:31:36;;;;;;;;;;;;;;;15.90;100.00;97672.81;5055848;28;19932;-79
2022/06/08 03:34:05;;;;;;;;;;;;;;;16.03;100.00;97679.66;5055718;28;19935;-79
2022/06/08 03:36:33;;;;;;;;;;;;;;;16.54;100.00;97666.97;5072433;28;19925;-79
2022/06/08 03:39:01;;;;;;;;;;;;;;;16.51;100.00;97667.97;5089148;28;20367;-79
2022/06/08 03:41:31;;;;;;;;;;;;;;;16.68;100.00;97668.88;5073491;28;19931;-79
2022/06/08 03:43:58;;;;;;;;;;;;;;;16.87;100.00;97672.94;5072120;28;19930;-79
2022/06/08 03:46:28;;;;;;;;;;;;;;;16.41;100.00;97658.06;5073232;28;19928;-79
2022/06/08 03:48:56;;;;;;;;;;;;;;;16.50;100.00;97666.38;5075714;28;19952;-79
2022/06/08 03:51:23;;;;;;;;;;;;;;;16.43;100.00;97661.94;5076427;28;19924;-79
2022/06/08 03:54:02;;;;;;;;;;;;;;;15.82;100.00;97661.22;5075680;28;20011;-79
2022/06/08 03:56:30;;;;;;;;;;;;;;;15.73;100.00;97661.34;5075745;28;20352;-79
2022/06/08 03:58:57;;;;;;;;;;;;;;;15.75;100.00;97655.97;5076761;28;20012;-79
2022/06/08 04:01:30;;;;;;;;;;;;;;;16.47;100.00;97656.09;5075486;28;19924;-79
2022/06/08 04:04:00;;;;;;;;;;;;;;;16.41;100.00;97658.06;5058639;28;19974;-79
2022/06/08 04:06:30;;;;;;;;;;;;;;;16.46;100.00;97658.16;5108883;28;20279;-79
2022/06/08 04:08:59;;;;;;;;;;;;;;;16.75;100.00;97657.94;5075307;28;19925;-79
2022/06/08 04:11:28;;;;;;;;;;;;;;;16.40;100.00;97650.88;5042346;28;20314;-79
2022/06/08 04:16:19;;;;;;;;;;;;;;;16.06;100.00;97646.91;5132588;27;19964;-80
2022/06/08 04:18:47;;;;;;;;;;;;;;;15.98;100.00;97654.22;5114354;28;19927;-80
2022/06/08 04:21:15;;;;;;;;;;;;;;;15.61;100.00;97647.59;5096772;28;19924;-80
2022/06/08 04:23:57;;;;;;;;;;;;;;;16.01;100.00;97653.22;5114600;28;19930;-80
2022/06/08 04:26:27;;;;;;;;;;;;;;;16.24;100.00;97655.84;5097051;28;19923;-80
2022/06/08 04:29:00;;;;;;;;;;;;;;;16.46;100.00;97654.56;5114024;28;19923;-80
2022/06/08 04:31:30;;;;;;;;;;;;;;;16.15;100.00;97650.34;5114107;28;20336;-80
2022/06/08 04:34:03;;;;;;;;;;;;;;;16.41;100.00;97650.38;5113773;28;19923;-80
2022/06/08 04:36:35;;;;;;;;;;;;;;;16.42;100.00;97645.53;5113926;28;19966;-81
2022/06/08 04:39:04;;;;;;;;;;;;;;;16.33;100.00;97648.50;5130759;27;19980;-80
2022/06/08 04:41:33;;;;;;;;;;;;;;;16.82;100.00;97651.06;5113870;27;19923;-81
2022/06/08 04:44:00;;;;;;;;;;;;;;;16.78;100.00;97659.75;5113848;28;19927;-81
2022/06/08 04:46:29;;;;;;;;;;;;;;;16.60;100.00;97653.69;5096929;28;19924;-81
2022/06/08 04:48:58;;;;;;;;;;;;;;;16.74;100.00;97659.22;5113449;28;20010;-80
2022/06/08 04:51:28;;;;;;;;;;;;;;;16.67;100.00;97653.25;5113812;28;19924;-81
2022/06/08 04:53:57;;;;;;;;;;;;;;;17.00;100.00;97653.53;5096740;28;20282;-80
2022/06/08 04:56:26;;;;;;;;;;;;;;;16.85;100.00;97653.69;5096853;28;19930;-80
2022/06/08 04:58:55;;;;;;;;;;;;;;;16.53;100.00;97649.25;5130252;28;20283;-80
2022/06/08 05:01:25;;;;;;;;;;;;;;;17.09;100.00;97653.38;5096745;28;19924;-81
2022/06/08 05:03:53;;;;;;;;;;;;;;;17.06;100.00;97648.72;5096369;28;20026;-80
2022/06/08 05:06:21;;;;;;;;;;;;;;;16.92;100.00;97652.47;5096487;28;20431;-81
2022/06/08 05:08:49;;;;;;;;;;;;;;;16.78;100.00;97650.53;5096538;27;19930;-80
2022/06/08 05:11:18;;;;;;;;;;;;;;;17.04;100.00;97654.13;5113349;28;20331;-81
2022/06/08 05:13:47;;;;;;;;;;;;;;;17.02;100.00;97646.16;5113392;28;19924;-81
2022/06/08 05:16:14;;;;;;;;;;;;;;;17.37;100.00;97648.72;5096060;28;19924;-81
2022/06/08 05:18:46;;;;;;;;;;;;;;;17.29;100.00;97647.63;5113016;28;20006;-81
2022/06/08 05:21:17;;;;;;;;;;;;;;;17.37;100.00;97638.19;5112420;28;19931;-80
2022/06/08 05:23:48;;;;;;;;;;;;;;;16.92;100.00;97638.38;5096722;28;20019;-81
2022/06/08 05:26:21;;;;;;;;;;;;;;;17.29;100.00;97642.78;5105871;28;20389;-80
2022/06/08 05:28:48;;;;;;;;;;;;;;;16.98;100.00;97645.59;5082466;28;19928;-80
2022/06/08 05:31:16;;;;;;;;;;;;;;;17.55;100.00;97640.63;5099596;28;20018;-81
2022/06/08 05:33:46;;;;;;;;;;;;;;;17.05;100.00;97633.06;5081863;28;19973;-81
2022/06/08 05:36:17;;;;;;;;;;;;;;;17.40;100.00;97633.59;5098958;28;19924;-80
2022/06/08 05:38:47;;;;;;;;;;;;;;;17.04;100.00;97637.94;5099059;28;19923;-80
2022/06/08 05:41:16;;;;;;;;;;;;;;;17.25;100.00;97635.81;5082598;28;19976;-81
2022/06/08 05:43:44;;;;;;;;;;;;;;;17.29;100.00;97647.63;5115856;28;19928;-80
2022/06/08 05:46:12;;;;;;;;;;;;;;;17.32;100.00;97636.13;5098963;28;19923;-80
2022/06/08 05:48:43;;;;;;;;;;;;;;;17.39;100.00;97640.50;5133000;27;20427;-81
2022/06/08 05:51:12;;;;;;;;;;;;;;;17.49;100.00;97634.19;5099133;28;20332;-81
2022/06/08 05:53:40;;;;;;;;;;;;;;;17.55;100.00;97637.06;5100002;28;20342;-81
2022/06/08 05:56:09;;;;;;;;;;;;;;;17.68;100.00;97634.56;5132966;27;20027;-80
2022/06/08 05:58:41;;;;;;;;;;;;;;;17.76;100.00;97641.28;5099442;28;19931;-81
2022/06/08 06:01:08;;;;;;;;;;;;;;;17.72;100.00;97630.22;5098791;28;20251;-81
2022/06/08 06:03:36;;;;;;;;;;;;;;;17.87;100.00;97633.63;5098745;28;19923;-79
2022/06/08 06:06:03;;;;;;;;;;;;;;;17.98;100.00;97634.97;5098510;28;19931;-80
2022/06/08 06:08:31;;;;;;;;;;;;;;;17.94;100.00;97638.81;5116664;28;19935;-80
2022/06/08 06:11:03;;;;;;;;;;;;;;;17.51;100.00;97642.94;5083150;28;20417;-78
2022/06/08 06:13:36;;;;;;;;;;;;;;;17.61;100.00;97635.03;5064250;28;19927;-79
2022/06/08 06:16:06;;;;;;;;;;;;;;;17.73;100.00;97636.66;5080972;28;19938;-79
2022/06/08 06:18:34;;;;;;;;;;;;;;;18.00;100.00;97636.00;5098167;28;20351;-79
2022/06/08 06:21:14;;;;;;;;;;;;;;;17.91;100.00;97637.00;5081170;28;19950;-79
2022/06/08 06:23:56;;;;;;;;;;;;;;;17.51;100.00;97642.16;5098132;28;19931;-79
2022/06/08 06:26:50;;;;;;;;;;;;;;;17.45;100.00;97649.81;5112127;28;20305;-79
2022/06/08 06:29:20;;;;;;;;;;;;;;;17.76;100.00;97641.28;5097818;28;19924;-79
2022/06/08 06:31:58;;;;;;;;;;;;;;;17.86;100.00;97642.63;5115853;28;20022;-79
2022/06/08 06:34:29;;;;;;;;;;;;;;;17.88;100.00;97640.06;5081301;28;19928;-79
2022/06/08 06:36:58;;;;;;;;;;;;;;;17.72;100.00;97635.13;5097951;28;19930;-79
2022/06/08 06:39:27;;;;;;;;;;;;;;;17.55;100.00;97639.88;5097025;28;19924;-79
2022/06/08 06:42:02;;;;;;;;;;;;;;;17.76;100.00;97644.13;5080939;28;20379;-79
2022/06/08 06:44:36;;;;;;;;;;;;;;;17.92;100.00;97643.41;5080434;28;19981;-79
2022/06/08 06:47:07;;;;;;;;;;;;;;;17.95;100.00;97642.41;5115709;28;20018;-79
2022/06/08 06:49:56;;;;;;;;;;;;;;;17.97;100.00;97642.69;5115567;28;19930;-79
2022/06/08 06:52:24;;;;;;;;;;;;;;;17.53;100.00;97645.25;5097570;28;20289;-79
2022/06/08 06:54:54;;;;;;;;;;;;;;;17.35;100.00;97645.63;5080539;28;19931;-79
2022/06/08 06:57:21;;;;;;;;;;;;;;;17.48;100.00;97641.13;5080441;28;19957;-78
2022/06/08 06:59:48;;;;;;;;;;;;;;;17.23;100.00;97646.81;5063412;28;19924;-79
2022/06/08 07:02:17;;;;;;;;;;;;;;;17.04;100.00;97654.88;5063770;28;19923;-79
2022/06/08 07:04:46;;;;;;;;;;;;;;;16.98;100.00;97653.28;5097149;28;20504;-79
2022/06/08 07:07:14;;;;;;;;;;;;;;;16.74;100.00;97658.44;5064257;28;19928;-79
2022/06/08 07:09:42;;;;;;;;;;;;;;;16.76;100.00;97655.91;5096864;28;19931;-75
2022/06/08 07:12:12;;;;;;;;;;;;;;;16.70;100.00;97655.06;5080317;28;19947;-77
2022/06/08 07:14:47;;;;;;;;;;;;;;;16.89;100.00;97653.47;5096754;28;19931;-80
2022/06/08 07:17:20;;;;;;;;;;;;;;;17.17;100.00;97651.66;5081560;28;19924;-82
2022/06/08 07:19:48;;;;;;;;;;;;;;;17.35;100.00;97651.25;5059397;28;19931;-80
2022/06/08 07:22:17;;;;;;;;;;;;;;;17.42;100.00;97656.44;5077899;28;19930;-82
2022/06/08 07:24:44;;;;;;;;;;;;;;;17.33;100.00;97654.59;5094006;28;19928;-81
2022/06/08 07:27:11;;;;;;;;;;;;;;;17.30;100.00;97654.81;5112161;28;19942;-81
2022/06/08 07:29:38;;;;;;;;;;;;;;;17.49;100.00;97661.66;5094506;28;19989;-81
2022/06/08 07:32:07;;;;;;;;;;;;;;;17.44;100.00;97659.56;5093969;28;19935;-81
2022/06/08 07:34:34;;;;;;;;;;;;;;;17.85;100.00;97660.84;5111921;28;19972;-81
2022/06/08 07:37:01;;;;;;;;;;;;;;;18.13;100.00;97647.63;5111810;28;19931;-80
2022/06/08 07:39:28;;;;;;;;;;;;;;;18.59;100.00;97652.94;5092905;28;19924;-80
2022/06/08 07:41:55;;;;;;;;;;;;;;;18.80;100.00;97646.56;5111927;28;19935;-83
2022/06/08 07:44:23;;;;;;;;;;;;;;;18.78;100.00;97646.28;5110370;28;19931;-83
2022/06/08 07:46:50;;;;;;;;;;;;;;;18.51;100.00;97654.75;5110901;28;19924;-83
2022/06/08 07:49:39;;;;;;;;;;;;;;;18.68;100.00;97647.81;5109929;28;19924;-83
2022/06/08 07:52:08;;;;;;;;;;;;;;;18.50;100.00;97642.66;5110855;28;20386;-83
2022/06/08 07:54:36;;;;;;;;;;;;;;;18.83;100.00;97644.75;5111946;28;20105;-82
2022/06/08 07:57:04;;;;;;;;;;;;;;;18.58;100.00;97649.34;5110211;28;19924;-83
2022/06/08 07:59:33;;;;;;;;;;;;;;;18.36;100.00;97640.75;5111863;28;19924;-81
2022/06/08 08:02:01;;;;;;;;;;;;;;;18.42;100.00;97627.44;5112391;28;19927;-86
2022/06/08 08:04:29;;;;;;;;;;;;;;;18.51;100.00;97640.59;5111808;28;20305;-86
2022/06/08 08:06:57;;;;;;;;;;;;;;;19.23;100.00;97636.56;5093737;28;19924;-86
2022/06/08 08:09:24;;;;;;;;;;;;;;;19.65;100.00;97624.16;5111203;28;19976;-86
2022/06/08 08:11:52;;;;;;;;;;;;;;;20.31;100.00;97631.69;5093160;28;19924;-87
2022/06/08 08:14:22;;;;;;;;;;;;;;;20.84;100.00;97623.34;5109803;28;19930;-85
2022/06/08 08:16:49;;;;;;;;;;;;;;;21.23;100.00;97623.84;5111744;28;20060;-88
2022/06/08 08:19:18;;;;;;;;;;;;;;;21.04;100.00;97619.34;5110299;28;19969;-85
2022/06/08 08:21:46;;;;;;;;;;;;;;;20.98;100.00;97613.72;5093313;28;19931;-86
2022/06/08 08:24:13;;;;;;;;;;;;;;;20.47;100.00;97611.75;5110205;28;19931;-86
2022/06/08 08:26:43;;;;;;;;;;;;;;;21.53;100.00;97618.16;5076082;28;20068;-85
2022/06/08 08:29:10;;;;;;;;;;;;;;;22.95;100.00;97614.84;5111112;28;19924;-87
2022/06/08 08:31:37;;;;;;;;;;;;;;;23.32;100.00;97598.97;5111058;28;19930;-88
2022/06/08 08:34:05;;;;;;;;;;;;;;;23.25;100.00;97588.22;5109551;28;19923;-87
2022/06/08 08:36:32;;;;;;;;;;;;;;;22.81;100.00;97587.59;5111062;28;20378;-86
2022/06/08 08:38:59;;;;;;;;;;;;;;;22.28;100.00;97588.59;5111382;28;20014;-87
2022/06/08 08:44:24;;;;;;;;;;;;;;;21.19;100.00;97602.69;5111451;28;19924;-81
2022/06/08 08:47:10;;;;;;;;;;;;;;;21.62;100.00;97606.44;5110190;28;19931;-80
2022/06/08 08:49:41;;;;;;;;;;;;;;;21.85;100.00;97607.78;5109829;28;19931;-82
2022/06/08 08:52:29;;;;;;;;;;;;;;;22.26;100.00;97604.69;5110731;28;19935;-83
2022/06/08 08:54:57;;;;;;;;;;;;;;;21.48;100.00;97612.53;5085819;28;19924;-84
2022/06/08 08:57:27;;;;;;;;;;;;;;;20.75;100.00;97609.47;5109386;28;20377;-82
2022/06/08 08:59:54;;;;;;;;;;;;;;;21.65;100.00;97611.06;5110942;28;20057;-82
2022/06/08 09:05:15;;;;;;;;;;;;;;;21.32;100.00;97605.69;5114257;28;19930;-84
2022/06/08 09:07:43;;;;;;;;;;;;;;;21.65;100.00;97611.06;5094309;28;20297;-83
2022/06/08 09:10:15;;;;;;;;;;;;;;;21.16;100.00;97615.91;5093058;28;19924;-83
2022/06/08 09:12:44;;;;;;;;;;;;;;;21.85;100.00;97619.13;5111207;28;19947;-83
2022/06/08 09:15:15;;;;;;;;;;;;;;;22.05;100.00;97604.44;5094233;28;20011;-83
2022/06/08 09:17:56;;;;;;;;;;;;;;;23.05;100.00;97598.88;5110186;28;19955;-85
2022/06/08 09:20:31;;;;;;;;;;;;;;;22.19;100.00;97608.91;5110587;28;19924;-83
2022/06/08 09:23:18;;;;;;;;;;;;;;;21.64;100.00;97605.91;5109716;28;19924;-83
2022/06/08 09:25:45;;;;;;;;;;;;;;;21.20;100.00;97609.94;5093667;28;19924;-83
2022/06/08 09:28:26;;;;;;;;;;;;;;;20.87;100.00;97604.50;5093185;28;19963;-84
2022/06/08 09:30:53;;;;;;;;;;;;;;;20.73;100.00;97619.81;5111262;28;20312;-84
2022/06/08 09:33:47;;;;;;;;;;;;;;;20.87;100.00;97615.88;5111095;28;19972;-84
2022/06/08 09:36:23;;;;;;;;;;;;;;;20.87;100.00;97615.88;5074662;28;19923;-84
2022/06/08 09:38:51;;;;;;;;;;;;;;;20.82;100.00;97619.50;5093463;28;19924;-85
2022/06/08 09:43:55;;;;;;;;;;;;;;;19.75;100.00;97630.31;5105722;27;20371;-83
2022/06/08 09:52:56;;;;;;;;;;;;;;;19.98;100.00;97634.63;5107260;28;19924;-84
2022/06/08 09:55:24;;;;;;;;;;;;;;;20.09;100.00;97637.41;5089828;28;19931;-83
2022/06/08 09:57:57;;;;;;;;;;;;;;;20.00;100.00;97637.69;5107829;28;19924;-84
2022/06/08 10:00:43;;;;;;;;;;;;;;;19.97;100.00;97652.91;5108384;28;19924;-85
2022/06/08 10:03:19;;;;;;;;;;;;;;;19.99;100.00;97639.00;5073846;28;20444;-85
2022/06/08 10:06:08;;;;;;;;;;;;;;;20.17;100.00;97646.94;5108226;28;19930;-82
2022/06/08 10:08:53;;;;;;;;;;;;;;;20.26;100.00;97652.31;5107004;28;20380;-82
2022/06/08 10:11:42;;;;;;;;;;;;;;;20.42;100.00;97657.13;5108440;28;19928;-83
2022/06/08 10:14:15;;;;;;;;;;;;;;;20.02;100.00;97660.63;5073989;28;20547;-83
2022/06/08 10:16:47;;;;;;;;;;;;;;;19.92;100.00;97662.22;5090459;28;19924;-83
2022/06/08 10:19:18;;;;;;;;;;;;;;;19.85;100.00;97671.25;5108210;28;19924;-82
2022/06/08 10:21:47;;;;;;;;;;;;;;;19.32;100.00;97681.63;5075976;28;19924;-85
2022/06/08 10:24:17;;;;;;;;;;;;;;;18.97;100.00;97689.03;5092935;28;20429;-84
2022/06/08 10:26:47;;;;;;;;;;;;;;;18.35;100.00;97704.25;5109828;28;19924;-82
2022/06/08 10:29:17;;;;;;;;;;;;;;;18.24;100.00;97721.16;5111347;28;20291;-83
2022/06/08 10:31:47;;;;;;;;;;;;;;;17.65;100.00;97720.31;5110965;28;20389;-82
2022/06/08 10:34:27;;;;;;;;;;;;;;;17.82;100.00;97718.38;5093256;28;20423;-82
2022/06/08 10:36:58;;;;;;;;;;;;;;;17.42;100.00;97724.19;5075468;28;19977;-82
2022/06/08 10:39:27;;;;;;;;;;;;;;;17.66;100.00;97716.97;5110901;28;19955;-82
2022/06/08 10:45:28;;;;;;;;;;;;;;;17.70;100.00;97733.69;5091733;28;20375;-82
2022/06/08 10:47:59;;;;;;;;;;;;;;;17.60;100.00;97737.97;5107692;28;19924;-83
2022/06/08 10:50:32;;;;;;;;;;;;;;;18.05;100.00;97739.84;5089602;28;20402;-83
2022/06/08 10:56:26;;;;;;;;;;;;;;;17.46;100.00;97741.72;5089956;28;20334;-81
2022/06/08 10:58:54;;;;;;;;;;;;;;;17.51;100.00;97747.41;5092385;28;19930;-81
2022/06/08 11:01:30;;;;;;;;;;;;;;;17.61;100.00;97742.34;5092618;28;19928;-81
2022/06/08 11:03:59;;;;;;;;;;;;;;;17.89;100.00;97740.50;5075728;28;19924;-81
2022/06/08 11:06:45;;;;;;;;;;;;;;;17.85;100.00;97746.41;5092788;28;19997;-81
2022/06/08 11:09:19;;;;;;;;;;;;;;;17.88;100.00;97744.59;5093972;28;20344;-81
2022/06/08 11:11:50;;;;;;;;;;;;;;;18.07;100.00;97744.97;5094143;28;19931;-81
2022/06/08 11:14:26;;;;;;;;;;;;;;;18.63;100.00;97747.56;5076296;28;20014;-81
2022/06/08 11:16:55;;;;;;;;;;;;;;;18.86;100.00;97735.06;5092491;28;19938;-81
2022/06/08 11:19:24;;;;;;;;;;;;;;;18.89;100.00;97731.19;5060521;28;19924;-82
2022/06/08 11:21:54;;;;;;;;;;;;;;;18.75;100.00;97737.09;5077827;28;19935;-82
2022/06/08 11:24:28;;;;;;;;;;;;;;;18.56;100.00;97733.94;5095202;28;19928;-81
2022/06/08 11:27:11;;;;;;;;;;;;;;;18.70;100.00;97744.28;5090528;28;20378;-81
2022/06/08 11:29:48;;;;;;;;;;;;;;;18.67;100.00;97750.97;5092325;28;19977;-82
2022/06/08 11:32:24;;;;;;;;;;;;;;;18.56;100.00;97744.47;5088631;28;20430;-81
2022/06/08 11:35:11;;;;;;;;;;;;;;;18.28;100.00;97755.63;5087866;28;20029;-80
2022/06/08 11:38:02;;;;;;;;;;;;;;;18.88;100.00;97743.81;5092283;28;19935;-81
2022/06/08 11:40:30;;;;;;;;;;;;;;;18.99;100.00;97751.56;5053812;28;19931;-81
2022/06/08 11:43:15;;;;;;;;;;;;;;;18.93;100.00;97750.78;5036149;28;19925;-80
2022/06/08 11:45:47;;;;;;;;;;;;;;;18.84;100.00;97760.25;5070167;28;19924;-80
2022/06/08 11:48:16;;;;;;;;;;;;;;;18.45;100.00;97765.00;5053283;28;20015;-81
2022/06/08 11:50:48;;;;;;;;;;;;;;;18.49;100.00;97759.88;5070266;28;19925;-81
2022/06/08 11:53:35;;;;;;;;;;;;;;;18.67;100.00;97770.75;5070755;28;19929;-81
2022/06/08 11:56:05;;;;;;;;;;;;;;;18.27;100.00;97776.69;5053669;28;20092;-82
2022/06/08 11:58:34;;;;;;;;;;;;;;;17.57;100.00;97781.34;5053728;28;20331;-80
2022/06/08 12:01:09;;;;;;;;;;;;;;;17.20;100.00;97774.81;5054481;28;19930;-81
2022/06/08 12:03:41;;;;;;;;;;;;;;;16.96;100.00;97788.44;5070825;28;19936;-82
2022/06/08 12:06:17;;;;;;;;;;;;;;;16.89;100.00;97789.63;5052875;28;19958;-82
2022/06/08 12:08:48;;;;;;;;;;;;;;;17.01;100.00;97794.13;5053674;28;19924;-81
2022/06/08 12:11:17;;;;;;;;;;;;;;;17.39;100.00;97782.44;5068444;28;20411;-81
2022/06/08 12:13:52;;;;;;;;;;;;;;;17.77;100.00;97789.72;5070416;28;19924;-81
2022/06/08 12:16:20;;;;;;;;;;;;;;;18.28;100.00;97789.53;5072093;28;19930;-81
2022/06/08 12:18:56;;;;;;;;;;;;;;;18.57;100.00;97780.72;5077698;28;19930;-81
2022/06/08 12:21:25;;;;;;;;;;;;;;;19.16;100.00;97764.44;5077704;28;19924;-82
2022/06/08 12:23:59;;;;;;;;;;;;;;;18.83;100.00;97772.06;5077371;28;19975;-82
2022/06/08 12:26:37;;;;;;;;;;;;;;;18.52;100.00;97763.75;5094173;28;20015;-82
2022/06/08 12:29:28;;;;;;;;;;;;;;;18.35;100.00;97766.47;5094136;28;19927;-82
2022/06/08 12:32:14;;;;;;;;;;;;;;;18.60;100.00;97776.88;5077512;28;19924;-82
2022/06/08 12:34:42;;;;;;;;;;;;;;;17.87;100.00;97782.63;5093833;28;19986;-80
2022/06/08 12:37:30;;;;;;;;;;;;;;;17.92;100.00;97773.38;5076448;28;19924;-85
2022/06/08 12:39:59;;;;;;;;;;;;;;;18.13;100.00;97782.53;5092839;28;19947;-83
2022/06/08 12:42:27;;;;;;;;;;;;;;;17.88;100.00;97784.16;5090654;28;19928;-82
2022/06/08 12:44:59;;;;;;;;;;;;;;;18.04;100.00;97762.94;5093621;28;19925;-82
2022/06/08 12:47:29;;;;;;;;;;;;;;;18.71;100.00;97776.16;5075793;28;19931;-82
2022/06/08 12:50:01;;;;;;;;;;;;;;;18.59;100.00;97769.69;5093416;28;19930;-83
2022/06/08 12:52:32;;;;;;;;;;;;;;;18.80;100.00;97770.25;5094812;28;19924;-82
2022/06/08 12:55:00;;;;;;;;;;;;;;;18.85;100.00;97756.16;5076646;28;19924;-82
2022/06/08 12:57:30;;;;;;;;;;;;;;;19.22;100.00;97761.66;5060338;28;19931;-83
2022/06/08 12:59:59;;;;;;;;;;;;;;;18.71;100.00;97764.84;5076744;28;19924;-83
2022/06/08 13:02:31;;;;;;;;;;;;;;;18.82;100.00;97762.84;5060380;28;19924;-83
2022/06/08 13:04:59;;;;;;;;;;;;;;;18.77;100.00;97774.13;5093164;28;19986;-82
2022/06/08 13:07:32;;;;;;;;;;;;;;;18.94;100.00;97781.41;5060383;28;19928;-82
2022/06/08 13:10:00;;;;;;;;;;;;;;;18.85;100.00;97778.00;5076260;28;19974;-83
2022/06/08 13:12:32;;;;;;;;;;;;;;;19.19;100.00;97774.00;5093121;28;19924;-82
2022/06/08 13:14:59;;;;;;;;;;;;;;;19.15;100.00;97779.91;5093841;28;19931;-83
2022/06/08 13:17:28;;;;;;;;;;;;;;;19.13;100.00;97779.63;5092578;28;19954;-82
2022/06/08 13:19:57;;;;;;;;;;;;;;;19.69;100.00;97772.75;5093888;28;19924;-84
2022/06/08 13:22:26;;;;;;;;;;;;;;;20.05;100.00;97785.13;5069798;28;20337;-83
2022/06/08 13:24:53;;;;;;;;;;;;;;;19.82;100.00;97762.97;5106551;28;19931;-84
2022/06/08 13:27:20;;;;;;;;;;;;;;;20.18;100.00;97770.41;5090421;28;19931;-84